createdAt,value
2017-12-28T00:01:39.558Z,94.96
2017-12-28T00:04:07.143Z,95.03
2017-12-28T00:06:34.712Z,95.16
2017-12-28T00:09:02.394Z,95.12
2017-12-28T00:11:29.962Z,94.20
2017-12-28T00:13:58.383Z,94.55
2017-12-28T00:16:26.044Z,94.48
2017-12-28T00:18:53.742Z,94.44
2017-12-28T00:21:21.320Z,94.31
2017-12-28T00:23:48.889Z,94.03
2017-12-28T00:26:16.486Z,94.42
2017-12-28T00:28:44.063Z,94.26
2017-12-28T00:31:11.645Z,93.61
2017-12-28T00:33:40.031Z,93.90
2017-12-28T00:36:08.521Z,94.22
2017-12-28T00:38:36.093Z,94.28
2017-12-28T00:41:03.694Z,94.61
2017-12-28T00:43:31.363Z,94.43
2017-12-28T00:45:58.974Z,94.81
2017-12-28T00:48:26.582Z,95.23
2017-12-28T00:50:55.073Z,95.06
2017-12-28T00:53:23.383Z,95.46
2017-12-28T00:55:50.975Z,95.44
2017-12-28T00:58:18.661Z,95.47
2017-12-28T01:00:46.330Z,95.24
2017-12-28T01:03:13.910Z,95.07
2017-12-28T01:05:41.486Z,95.44
2017-12-28T01:08:09.114Z,94.61
2017-12-28T01:10:36.738Z,94.65
2017-12-28T01:13:04.305Z,94.63
2017-12-28T01:15:31.878Z,95.22
2017-12-28T01:17:59.453Z,94.89
2017-12-28T01:20:27.130Z,94.31
2017-12-28T01:22:55.607Z,94.19
2017-12-28T01:25:23.186Z,93.85
2017-12-28T01:27:50.806Z,92.45
2017-12-28T01:30:18.407Z,93.94
2017-12-28T01:32:45.978Z,93.30
2017-12-28T01:35:13.545Z,93.38
2017-12-28T01:37:41.161Z,92.83
2017-12-28T01:40:08.733Z,93.77
2017-12-28T01:42:36.304Z,93.43
2017-12-28T01:45:03.994Z,93.12
2017-12-28T01:47:32.438Z,93.93
2017-12-28T01:50:00.914Z,93.65
2017-12-28T01:52:28.538Z,92.91
2017-12-28T01:54:56.106Z,92.43
2017-12-28T01:57:23.716Z,93.13
2017-12-28T01:59:51.334Z,92.92
2017-12-28T02:02:18.930Z,93.42
2017-12-28T02:04:47.523Z,93.54
2017-12-28T02:07:15.098Z,92.90
2017-12-28T02:09:42.665Z,91.94
2017-12-28T02:12:10.230Z,90.43
2017-12-28T02:14:37.803Z,91.70
2017-12-28T02:17:06.340Z,92.68
2017-12-28T02:19:33.913Z,92.89
2017-12-28T02:22:01.562Z,93.47
2017-12-28T02:24:29.277Z,94.52
2017-12-28T02:26:56.840Z,93.91
2017-12-28T02:29:24.447Z,91.65
2017-12-28T02:31:52.026Z,92.93
2017-12-28T02:34:19.638Z,92.37
2017-12-28T02:36:47.210Z,93.56
2017-12-28T02:39:14.822Z,93.49
2017-12-28T02:41:42.399Z,93.12
2017-12-28T02:44:10.006Z,93.42
2017-12-28T02:46:37.709Z,94.25
2017-12-28T02:49:06.124Z,94.11
2017-12-28T02:51:33.706Z,94.39
2017-12-28T02:54:01.389Z,94.27
2017-12-28T02:56:28.961Z,94.12
2017-12-28T02:58:57.530Z,93.14
2017-12-28T03:01:25.911Z,92.64
2017-12-28T03:03:54.402Z,93.33
2017-12-28T03:06:21.966Z,92.79
2017-12-28T03:08:49.539Z,92.94
2017-12-28T03:11:17.150Z,93.62
2017-12-28T03:13:44.726Z,93.30
2017-12-28T03:16:12.460Z,91.97
2017-12-28T03:18:40.890Z,91.00
2017-12-28T03:21:08.464Z,91.31
2017-12-28T03:23:36.965Z,90.72
2017-12-28T03:26:04.585Z,92.00
2017-12-28T03:28:32.158Z,90.97
2017-12-28T03:30:59.731Z,92.35
2017-12-28T03:33:28.134Z,89.64
2017-12-28T03:35:56.233Z,90.68
2017-12-28T03:38:24.610Z,91.65
2017-12-28T03:40:52.182Z,91.83
2017-12-28T03:43:19.766Z,91.44
2017-12-28T03:45:47.340Z,91.76
2017-12-28T03:48:14.918Z,91.56
2017-12-28T03:50:43.301Z,92.30
2017-12-28T03:53:11.896Z,91.90
2017-12-28T03:55:39.506Z,93.43
2017-12-28T03:58:07.074Z,92.98
2017-12-28T04:00:35.616Z,93.51
2017-12-28T04:03:03.186Z,92.15
2017-12-28T04:05:30.794Z,92.23
2017-12-28T04:07:59.311Z,90.38
2017-12-28T04:10:26.886Z,91.27
2017-12-28T04:12:54.455Z,91.29
2017-12-28T04:15:22.022Z,92.47
2017-12-28T04:17:49.639Z,92.69
2017-12-28T04:20:17.228Z,92.49
2017-12-28T04:22:44.794Z,93.00
2017-12-28T04:25:12.402Z,93.32
2017-12-28T04:27:39.977Z,92.74
2017-12-28T04:30:07.580Z,91.68
2017-12-28T04:32:35.247Z,91.98
2017-12-28T04:35:02.849Z,91.42
2017-12-28T04:37:30.427Z,92.71
2017-12-28T04:39:58.002Z,93.47
2017-12-28T04:42:25.625Z,93.13
2017-12-28T04:44:53.202Z,92.01
2017-12-28T04:47:20.846Z,91.60
2017-12-28T04:49:48.518Z,91.57
2017-12-28T04:52:16.098Z,91.06
2017-12-28T04:54:43.669Z,92.11
2017-12-28T04:57:11.247Z,92.71
2017-12-28T04:59:39.623Z,92.53
2017-12-28T05:02:08.158Z,91.79
2017-12-28T05:04:35.847Z,93.18
2017-12-28T05:07:03.446Z,94.55
2017-12-28T05:09:31.868Z,94.81
2017-12-28T05:11:59.445Z,95.37
2017-12-28T05:14:27.094Z,95.25
2017-12-28T05:16:54.752Z,95.10
2017-12-28T05:19:23.225Z,95.07
2017-12-28T05:21:51.650Z,94.66
2017-12-28T05:24:20.150Z,95.33
2017-12-28T05:26:48.514Z,96.22
2017-12-28T05:29:16.093Z,96.07
2017-12-28T05:31:43.666Z,95.19
2017-12-28T05:34:11.233Z,94.44
2017-12-28T05:36:38.894Z,94.76
2017-12-28T05:39:07.242Z,94.83
2017-12-28T05:41:34.899Z,95.54
2017-12-28T05:44:02.506Z,93.73
2017-12-28T05:46:30.087Z,94.44
2017-12-28T05:48:58.486Z,94.53
2017-12-28T05:51:26.060Z,95.09
2017-12-28T05:53:53.824Z,95.81
2017-12-28T05:56:21.449Z,96.12
2017-12-28T05:58:49.071Z,95.30
2017-12-28T06:01:16.683Z,95.05
2017-12-28T06:03:44.253Z,95.90
2017-12-28T06:06:11.876Z,93.04
2017-12-28T06:08:39.519Z,94.11
2017-12-28T06:11:07.093Z,94.64
2017-12-28T06:13:34.686Z,95.69
2017-12-28T06:16:02.353Z,95.70
2017-12-28T06:18:29.934Z,94.85
2017-12-28T06:20:57.567Z,94.54
2017-12-28T06:23:25.142Z,94.76
2017-12-28T06:25:53.618Z,95.14
2017-12-28T06:28:21.282Z,95.21
2017-12-28T06:30:49.773Z,94.40
2017-12-28T06:33:18.162Z,93.96
2017-12-28T06:35:46.830Z,93.39
2017-12-28T06:38:15.474Z,94.51
2017-12-28T06:40:43.074Z,94.43
2017-12-28T06:43:10.645Z,94.20
2017-12-28T06:45:38.227Z,93.64
2017-12-28T06:48:05.857Z,94.86
2017-12-28T06:50:34.393Z,95.25
2017-12-28T06:53:02.002Z,94.61
2017-12-28T06:55:29.691Z,94.72
2017-12-28T06:57:57.269Z,94.01
2017-12-28T07:00:24.847Z,94.26
2017-12-28T07:02:52.418Z,94.85
2017-12-28T07:05:19.985Z,95.36
2017-12-28T07:07:49.050Z,96.04
2017-12-28T07:10:17.341Z,95.64
2017-12-28T07:12:45.802Z,94.19
2017-12-28T07:15:14.323Z,93.13
2017-12-28T07:17:42.746Z,93.28
2017-12-28T07:20:11.254Z,92.66
2017-12-28T07:22:39.682Z,93.97
2017-12-28T07:25:08.162Z,94.60
2017-12-28T07:27:35.737Z,94.37
2017-12-28T07:30:03.310Z,93.75
2017-12-28T07:32:30.923Z,93.80
2017-12-28T07:34:58.537Z,93.80
2017-12-28T07:37:26.196Z,94.37
2017-12-28T07:39:53.769Z,94.75
2017-12-28T07:42:22.346Z,95.33
2017-12-28T07:44:50.866Z,94.79
2017-12-28T07:47:19.315Z,94.65
2017-12-28T07:49:47.626Z,95.11
2017-12-28T07:52:16.117Z,95.70
2017-12-28T07:54:44.504Z,94.95
2017-12-28T07:57:12.929Z,94.19
2017-12-28T07:59:40.545Z,95.01
2017-12-28T08:02:08.117Z,94.99
2017-12-28T08:04:35.690Z,94.75
2017-12-28T08:07:03.267Z,95.51
2017-12-28T08:09:31.654Z,95.77
2017-12-28T08:12:00.288Z,94.74
2017-12-28T08:14:27.861Z,94.10
2017-12-28T08:16:55.436Z,94.71
2017-12-28T08:19:23.026Z,95.46
2017-12-28T08:21:51.540Z,93.73
2017-12-28T08:24:19.909Z,93.58
2017-12-28T08:26:48.315Z,93.36
2017-12-28T08:29:15.898Z,93.45
2017-12-28T08:31:43.469Z,93.50
2017-12-28T08:34:11.835Z,93.51
2017-12-28T08:36:40.204Z,93.43
2017-12-28T08:39:07.774Z,93.75
2017-12-28T08:41:36.400Z,92.90
2017-12-28T08:44:03.975Z,94.00
2017-12-28T08:46:32.347Z,93.24
2017-12-28T08:49:00.925Z,93.24
2017-12-28T08:51:28.545Z,93.29
2017-12-28T08:53:57.086Z,92.32
2017-12-28T08:56:24.660Z,92.23
2017-12-28T08:58:53.066Z,93.12
2017-12-28T09:01:20.639Z,92.93
2017-12-28T09:03:49.140Z,92.29
2017-12-28T09:06:17.645Z,92.16
2017-12-28T09:08:45.301Z,92.49
2017-12-28T09:11:12.877Z,93.46
2017-12-28T09:13:41.263Z,92.41
2017-12-28T09:16:08.840Z,92.57
2017-12-28T09:18:36.419Z,92.82
2017-12-28T09:21:04.827Z,92.52
2017-12-28T09:23:33.298Z,92.52
2017-12-28T09:26:00.939Z,93.18
2017-12-28T09:28:29.361Z,92.28
2017-12-28T09:30:57.805Z,92.51
2017-12-28T09:33:26.362Z,92.43
2017-12-28T09:35:54.720Z,92.61
2017-12-28T09:38:23.139Z,92.64
2017-12-28T09:40:51.714Z,92.61
2017-12-28T09:43:20.104Z,92.89
2017-12-28T09:45:47.716Z,93.16
2017-12-28T09:48:16.085Z,92.49
2017-12-28T09:50:43.710Z,92.28
2017-12-28T09:53:11.354Z,91.65
2017-12-28T09:55:39.019Z,91.82
2017-12-28T09:58:07.289Z,92.11
2017-12-28T10:00:35.799Z,92.70
2017-12-28T10:03:04.155Z,91.92
2017-12-28T10:05:31.732Z,91.90
2017-12-28T10:07:59.302Z,91.64
2017-12-28T10:10:26.911Z,92.03
2017-12-28T10:12:54.675Z,92.41
2017-12-28T10:15:22.256Z,92.14
2017-12-28T10:17:49.874Z,91.59
2017-12-28T10:20:17.435Z,91.66
2017-12-28T10:22:45.826Z,91.28
2017-12-28T10:25:13.394Z,91.79
2017-12-28T10:27:41.004Z,91.50
2017-12-28T10:30:09.473Z,91.24
2017-12-28T10:32:37.121Z,91.61
2017-12-28T10:35:04.699Z,91.04
2017-12-28T10:37:32.271Z,91.51
2017-12-28T10:39:59.985Z,90.64
2017-12-28T10:42:27.559Z,90.77
2017-12-28T10:44:55.927Z,90.15
2017-12-28T10:47:23.494Z,91.20
2017-12-28T10:49:52.026Z,90.55
2017-12-28T10:52:19.596Z,91.30
2017-12-28T10:54:47.167Z,90.19
2017-12-28T10:57:14.729Z,90.21
2017-12-28T10:59:42.302Z,90.66
2017-12-28T11:02:09.871Z,90.59
2017-12-28T11:04:37.470Z,89.73
2017-12-28T11:07:05.076Z,89.52
2017-12-28T11:09:32.664Z,90.18
2017-12-28T11:12:00.246Z,88.82
2017-12-28T11:14:28.431Z,89.10
2017-12-28T11:16:55.994Z,89.52
2017-12-28T11:19:23.554Z,89.09
2017-12-28T11:21:51.114Z,89.43
2017-12-28T11:24:18.675Z,88.36
2017-12-28T11:26:46.239Z,89.18
2017-12-28T11:29:13.808Z,89.36
2017-12-28T11:31:41.458Z,89.11
2017-12-28T11:34:09.968Z,88.84
2017-12-28T11:36:37.569Z,88.44
2017-12-28T11:39:06.002Z,87.90
2017-12-28T11:41:33.604Z,88.85
2017-12-28T11:44:01.271Z,88.32
2017-12-28T11:46:28.875Z,88.07
2017-12-28T11:48:56.443Z,88.56
2017-12-28T11:51:24.010Z,88.34
2017-12-28T11:54:07.315Z,88.30
2017-12-28T11:56:39.725Z,88.11
2017-12-28T11:59:12.983Z,87.96
2017-12-28T12:01:47.611Z,88.93
2017-12-28T12:04:21.835Z,87.91
2017-12-28T12:06:55.249Z,87.70
2017-12-28T12:09:23.737Z,87.79
2017-12-28T12:11:52.231Z,87.24
2017-12-28T12:14:19.799Z,87.77
2017-12-28T12:16:47.358Z,87.16
2017-12-28T12:19:14.942Z,87.41
2017-12-28T12:21:43.372Z,87.47
2017-12-28T12:24:11.971Z,87.76
2017-12-28T12:26:40.442Z,87.48
2017-12-28T12:29:08.054Z,87.18
2017-12-28T12:31:35.718Z,87.48
2017-12-28T12:34:03.287Z,86.52
2017-12-28T12:36:30.938Z,86.68
2017-12-28T12:38:58.534Z,86.62
2017-12-28T12:41:26.134Z,86.52
2017-12-28T12:43:53.961Z,86.08
2017-12-28T12:46:21.525Z,86.65
2017-12-28T12:48:50.015Z,86.46
2017-12-28T12:51:18.356Z,86.74
2017-12-28T12:53:46.693Z,87.02
2017-12-28T12:56:15.092Z,86.77
2017-12-28T12:58:42.671Z,86.76
2017-12-28T13:01:11.195Z,86.55
2017-12-28T13:03:38.765Z,86.53
2017-12-28T13:06:07.259Z,86.40
2017-12-28T13:08:34.824Z,87.19
2017-12-28T13:11:02.428Z,86.28
2017-12-28T13:13:30.036Z,86.45
2017-12-28T13:15:57.603Z,86.56
2017-12-28T13:18:25.215Z,86.67
2017-12-28T13:20:53.556Z,86.05
2017-12-28T13:23:21.127Z,86.41
2017-12-28T13:25:48.698Z,86.40
2017-12-28T13:28:17.224Z,86.60
2017-12-28T13:30:44.853Z,86.81
2017-12-28T13:33:12.478Z,86.37
2017-12-28T13:35:40.046Z,86.25
2017-12-28T13:38:07.618Z,86.25
2017-12-28T13:40:36.223Z,86.39
2017-12-28T13:43:03.791Z,86.22
2017-12-28T13:45:31.398Z,86.01
2017-12-28T13:47:59.009Z,86.35
2017-12-28T13:50:26.614Z,86.63
2017-12-28T13:52:54.233Z,86.06
2017-12-28T13:55:22.667Z,85.21
2017-12-28T13:57:50.237Z,85.06
2017-12-28T14:00:17.873Z,85.73
2017-12-28T14:02:45.446Z,85.48
2017-12-28T14:05:13.011Z,85.51
2017-12-28T14:07:40.576Z,85.22
2017-12-28T14:10:09.119Z,85.05
2017-12-28T14:12:36.729Z,85.64
2017-12-28T14:15:05.088Z,85.11
2017-12-28T14:17:32.702Z,84.64
2017-12-28T14:20:01.051Z,85.29
2017-12-28T14:22:28.631Z,85.24
2017-12-28T14:24:56.190Z,85.30
2017-12-28T14:27:23.759Z,85.68
2017-12-28T14:29:51.386Z,84.88
2017-12-28T14:32:19.046Z,84.89
2017-12-28T14:34:46.663Z,85.00
2017-12-28T14:37:14.238Z,85.13
2017-12-28T14:39:42.590Z,85.07
2017-12-28T14:42:10.192Z,85.04
2017-12-28T14:44:38.696Z,85.43
2017-12-28T14:47:06.298Z,85.14
2017-12-28T14:49:33.863Z,85.46
2017-12-28T14:52:01.431Z,85.82
2017-12-28T14:54:29.887Z,85.38
2017-12-28T14:56:57.450Z,84.72
2017-12-28T14:59:25.016Z,85.21
2017-12-28T15:01:52.610Z,85.42
2017-12-28T15:04:20.179Z,85.27
2017-12-28T15:06:47.790Z,84.90
2017-12-28T15:09:16.183Z,85.42
2017-12-28T15:11:43.747Z,84.98
2017-12-28T15:14:12.243Z,85.16
2017-12-28T15:16:39.822Z,84.76
2017-12-28T15:19:07.397Z,84.92
2017-12-28T15:21:34.970Z,84.60
2017-12-28T15:24:02.542Z,84.42
2017-12-28T15:26:30.105Z,84.45
2017-12-28T15:28:57.679Z,84.49
2017-12-28T15:31:25.250Z,83.92
2017-12-28T15:33:52.815Z,84.23
2017-12-28T15:36:20.388Z,84.21
2017-12-28T15:38:49.948Z,83.73
2017-12-28T15:41:17.525Z,84.32
2017-12-28T15:43:45.095Z,83.54
2017-12-28T15:46:12.654Z,83.26
2017-12-28T15:48:40.230Z,83.69
2017-12-28T15:51:08.598Z,83.69
2017-12-28T15:53:36.171Z,83.56
2017-12-28T15:56:03.750Z,83.59
2017-12-28T15:58:31.344Z,82.97
2017-12-28T16:00:58.974Z,83.19
2017-12-28T16:03:26.569Z,82.44
2017-12-28T16:05:54.166Z,83.19
2017-12-28T16:08:21.863Z,83.05
2017-12-28T16:10:49.438Z,83.09
2017-12-28T16:13:17.006Z,83.37
2017-12-28T16:15:51.412Z,82.93
2017-12-28T16:18:19.013Z,83.98
2017-12-28T16:20:47.547Z,82.98
2017-12-28T16:23:15.220Z,83.94
2017-12-28T16:25:42.805Z,83.70
2017-12-28T16:28:10.436Z,83.75
2017-12-28T16:30:38.798Z,84.08
2017-12-28T16:33:07.114Z,84.15
2017-12-28T16:35:34.683Z,84.45
2017-12-28T16:38:02.259Z,84.40
2017-12-28T16:40:29.830Z,84.82
2017-12-28T16:42:57.406Z,84.72
2017-12-28T16:45:24.974Z,85.02
2017-12-28T16:47:52.529Z,85.20
2017-12-28T16:50:20.142Z,85.10
2017-12-28T16:52:47.715Z,85.21
2017-12-28T16:55:15.318Z,85.31
2017-12-28T16:57:42.918Z,85.54
2017-12-28T17:00:12.228Z,86.31
2017-12-28T17:02:40.490Z,86.58
2017-12-28T17:05:08.092Z,86.60
2017-12-28T17:07:36.425Z,86.67
2017-12-28T17:10:04.895Z,87.15
2017-12-28T17:12:33.509Z,87.34
2017-12-28T17:15:01.119Z,87.02
2017-12-28T17:17:28.687Z,87.29
2017-12-28T17:19:56.278Z,87.13
2017-12-28T17:22:24.753Z,87.15
2017-12-28T17:24:53.098Z,87.05
2017-12-28T17:27:20.703Z,86.81
2017-12-28T17:29:48.278Z,86.56
2017-12-28T17:32:16.717Z,86.72
2017-12-28T17:34:44.357Z,86.83
2017-12-28T17:37:12.779Z,86.69
2017-12-28T17:39:41.259Z,85.94
2017-12-28T17:42:09.526Z,86.23
2017-12-28T17:44:38.023Z,85.81
2017-12-28T17:47:06.541Z,85.51
2017-12-28T17:49:34.112Z,85.62
2017-12-28T17:52:01.720Z,85.46
2017-12-28T17:54:29.286Z,85.60
2017-12-28T17:56:56.886Z,84.96
2017-12-28T17:59:24.451Z,85.14
2017-12-28T18:01:52.022Z,84.31
2017-12-28T18:04:19.691Z,84.38
2017-12-28T18:06:48.315Z,84.32
2017-12-28T18:09:15.889Z,84.44
2017-12-28T18:11:43.547Z,84.17
2017-12-28T18:14:11.115Z,84.04
2017-12-28T18:16:38.709Z,83.72
2017-12-28T18:19:06.342Z,84.66
2017-12-28T18:21:33.922Z,84.98
2017-12-28T18:24:01.486Z,85.04
2017-12-28T18:26:29.661Z,84.57
2017-12-28T18:28:57.232Z,85.58
2017-12-28T18:31:24.800Z,84.76
2017-12-28T18:33:52.370Z,84.43
2017-12-28T18:36:19.939Z,84.72
2017-12-28T18:38:47.501Z,84.57
2017-12-28T18:41:15.230Z,84.50
2017-12-28T18:43:42.809Z,85.01
2017-12-28T18:46:10.374Z,84.85
2017-12-28T18:48:37.934Z,85.17
2017-12-28T18:51:05.503Z,84.75
2017-12-28T18:53:33.134Z,85.27
2017-12-28T18:56:00.813Z,84.30
2017-12-28T18:58:28.375Z,84.75
2017-12-28T19:00:55.945Z,84.51
2017-12-28T19:03:23.511Z,85.49
2017-12-28T19:05:51.114Z,85.06
2017-12-28T19:08:18.704Z,84.78
2017-12-28T19:10:46.326Z,85.80
2017-12-28T19:13:14.802Z,85.30
2017-12-28T19:15:42.373Z,86.05
2017-12-28T19:18:09.951Z,85.66
2017-12-28T19:20:37.599Z,85.79
2017-12-28T19:23:05.177Z,85.29
2017-12-28T19:25:32.750Z,85.56
2017-12-28T19:28:00.440Z,85.66
2017-12-28T19:30:28.043Z,85.44
2017-12-28T19:32:55.641Z,86.27
2017-12-28T19:35:23.270Z,85.80
2017-12-28T19:37:50.837Z,85.92
2017-12-28T19:40:18.398Z,85.67
2017-12-28T19:42:45.967Z,86.53
2017-12-28T19:45:13.534Z,86.10
2017-12-28T19:47:41.094Z,86.36
2017-12-28T19:50:08.690Z,86.14
2017-12-28T19:52:36.254Z,86.48
2017-12-28T19:55:03.818Z,85.69
2017-12-28T19:57:31.418Z,86.00
2017-12-28T19:59:58.994Z,85.71
2017-12-28T20:02:26.605Z,86.57
2017-12-28T20:04:54.194Z,85.64
2017-12-28T20:07:21.867Z,85.73
2017-12-28T20:09:49.463Z,85.64
2017-12-28T20:12:17.026Z,85.73
2017-12-28T20:14:44.651Z,84.33
2017-12-28T20:17:12.364Z,84.48
2017-12-28T20:19:39.934Z,84.67
2017-12-28T20:22:07.534Z,84.04
2017-12-28T20:24:35.109Z,83.96
2017-12-28T20:27:02.690Z,82.74
2017-12-28T20:29:30.354Z,82.96
2017-12-28T20:31:58.010Z,82.75
2017-12-28T20:34:25.634Z,82.44
2017-12-28T20:36:53.202Z,82.52
2017-12-28T20:39:20.770Z,82.61
2017-12-28T20:41:48.330Z,81.39
2017-12-28T20:44:15.890Z,81.57
2017-12-28T20:46:44.459Z,80.92
2017-12-28T20:49:12.022Z,81.60
2017-12-28T20:51:39.582Z,80.65
2017-12-28T20:54:07.186Z,80.77
2017-12-28T20:56:34.751Z,80.29
2017-12-28T20:59:02.327Z,79.97
2017-12-28T21:01:30.379Z,80.86
2017-12-28T21:03:58.034Z,80.56
2017-12-28T21:06:25.609Z,80.75
2017-12-28T21:08:53.267Z,79.98
2017-12-28T21:11:20.835Z,79.82
2017-12-28T21:13:48.402Z,80.81
2017-12-28T21:16:15.966Z,80.52
2017-12-28T21:18:43.535Z,79.72
2017-12-28T21:21:11.103Z,80.04
2017-12-28T21:23:38.730Z,79.68
2017-12-28T21:26:06.426Z,80.39
2017-12-28T21:28:34.086Z,80.64
2017-12-28T21:31:01.714Z,80.07
2017-12-28T21:33:29.277Z,80.24
2017-12-28T21:35:56.854Z,80.32
2017-12-28T21:38:24.431Z,80.80
2017-12-28T21:40:51.998Z,81.23
2017-12-28T21:43:19.564Z,80.17
2017-12-28T21:45:47.187Z,80.02
2017-12-28T21:48:14.755Z,80.26
2017-12-28T21:50:42.411Z,80.51
2017-12-28T21:53:09.974Z,81.29
2017-12-28T21:55:37.562Z,81.17
2017-12-28T21:58:05.133Z,80.90
2017-12-28T22:00:32.704Z,81.18
2017-12-28T22:03:00.326Z,81.59
2017-12-28T22:05:27.902Z,81.12
2017-12-28T22:07:55.570Z,82.56
2017-12-28T22:10:23.164Z,81.73
2017-12-28T22:12:50.726Z,82.07
2017-12-28T22:15:18.326Z,81.30
2017-12-28T22:17:45.894Z,82.57
2017-12-28T22:20:13.900Z,80.84
2017-12-28T22:22:41.476Z,81.57
2017-12-28T22:25:09.899Z,80.74
2017-12-28T22:27:37.475Z,79.63
2017-12-28T22:30:05.046Z,81.04
2017-12-28T22:32:32.609Z,80.39
2017-12-28T22:35:00.178Z,79.32
2017-12-28T22:37:27.835Z,80.10
2017-12-28T22:39:55.410Z,80.23
2017-12-28T22:42:23.029Z,82.20
2017-12-28T22:44:50.688Z,80.05
2017-12-28T22:47:18.266Z,79.49
2017-12-28T22:49:45.843Z,79.24
2017-12-28T22:52:13.530Z,79.28
2017-12-28T22:54:41.189Z,79.57
2017-12-28T22:57:08.753Z,81.03
2017-12-28T22:59:36.320Z,79.31
2017-12-28T23:02:03.886Z,81.52
2017-12-28T23:04:31.449Z,80.42
2017-12-28T23:06:59.059Z,79.35
2017-12-28T23:09:26.622Z,79.32
2017-12-28T23:11:55.147Z,79.03
2017-12-28T23:14:23.501Z,80.62
2017-12-28T23:16:51.127Z,78.82
2017-12-28T23:19:18.694Z,81.08
2017-12-28T23:21:46.258Z,78.78
2017-12-28T23:24:13.838Z,78.47
2017-12-28T23:26:42.287Z,79.02
2017-12-28T23:29:09.858Z,78.89
2017-12-28T23:31:37.509Z,79.39
2017-12-28T23:34:05.079Z,79.19
2017-12-28T23:36:32.650Z,78.64
2017-12-28T23:39:00.223Z,78.24
2017-12-28T23:41:28.780Z,79.16
2017-12-28T23:43:56.349Z,79.28
2017-12-28T23:46:24.660Z,78.91
2017-12-28T23:48:52.328Z,79.17
2017-12-28T23:51:19.889Z,78.25
2017-12-28T23:53:47.467Z,78.16
2017-12-28T23:56:15.071Z,77.04
2017-12-28T23:58:42.638Z,77.80
